Atlantic Elm — 9HA3054 — position and weather

sailwx.info

Track history (hours):
 
Tides and Currents Weather Stations Pressure Air Temp Water Temp Dewpoint Dewpoint Depression Visibility Wind Speed Wind Dir Waves Ship Positions

Atlantic Elm

Last reported at 2017-Mar-26 12:26 UTC. Time now 2017-Mar-29 15:20 UTC.
Position N 29°05' W 094°28'.

Length 190 m; draft 6.7 m.

Type: Ship (hazmat cat A). MMSI: 229081000.

Date/timePositionNaut miles runAvg speedWind from/ knotsBaromVisibWave heightAir tempDewpointWater temp
2017-Mar-26 12:26N 29°05' W 094°28'24 7.9
2017-Mar-26 09:28N 29°21' W 094°47'1111.9
2017-Mar-26 08:33N 29°31' W 094°53'1211.6
2017-Mar-26 07:33N 29°41' W 094°59'7 7.3
2017-Mar-26 06:33N 29°45' W 095°06'5 5.5
2017-Mar-26 05:33N 29°44' W 095°12'1 1.3
2017-Mar-26 04:33N 29°44' W 095°13'0 0.0
2017-Mar-26 03:33N 29°44' W 095°13'0 0.0
2017-Mar-26 02:33N 29°44' W 095°13'0 0.0
2017-Mar-26 01:33N 29°44' W 095°13'0 0.0
2017-Mar-26 00:31N 29°44' W 095°13'0 0.0
2017-Mar-25 23:33N 29°44' W 095°13'0 0.0
2017-Mar-25 22:33N 29°44' W 095°13'0 0.0
2017-Mar-25 21:30N 29°44' W 095°13'0 0.0
2017-Mar-25 20:33N 29°44' W 095°13'0 0.0
2017-Mar-25 19:33N 29°44' W 095°13'0 0.0
2017-Mar-25 18:30N 29°44' W 095°13'0 0.0
2017-Mar-25 17:30N 29°44' W 095°13'0 0.0
2017-Mar-25 16:33N 29°44' W 095°13'0 0.0
2017-Mar-25 15:33N 29°44' W 095°13'0 0.0
2017-Mar-25 14:30N 29°44' W 095°13'0 0.0
2017-Mar-25 13:33N 29°44' W 095°13'0 0.0
2017-Mar-25 12:33N 29°44' W 095°13'0 0.0
2017-Mar-25 11:33N 29°44' W 095°13'0 0.0
2017-Mar-25 10:33N 29°44' W 095°13'0 0.0
2017-Mar-25 09:33N 29°44' W 095°13'0 0.0
2017-Mar-25 08:33N 29°44' W 095°13'0 0.0
2017-Mar-25 07:33N 29°44' W 095°13'0 0.0
2017-Mar-25 06:33N 29°44' W 095°13'0 0.0
2017-Mar-25 05:33N 29°44' W 095°13'0 0.0
2017-Mar-25 04:33N 29°44' W 095°13'0 0.0
2017-Mar-25 03:33N 29°44' W 095°13'0 0.0
2017-Mar-25 02:33N 29°44' W 095°13'0 0.0
2017-Mar-25 01:33N 29°44' W 095°13'0 0.0
2017-Mar-25 00:33N 29°44' W 095°13'0 0.0
2017-Mar-24 23:33N 29°44' W 095°13'0 0.0
2017-Mar-24 22:33N 29°44' W 095°13'0 0.0
2017-Mar-24 21:33N 29°44' W 095°13'0 0.0
2017-Mar-24 20:33N 29°44' W 095°13'0 0.0
2017-Mar-24 19:33N 29°44' W 095°13'0 0.0
2017-Mar-24 18:33N 29°44' W 095°13'0 0.0
2017-Mar-24 17:33N 29°44' W 095°13'0 0.0
2017-Mar-24 16:33N 29°44' W 095°13'0 0.0
2017-Mar-24 15:33N 29°44' W 095°13'0 0.0
2017-Mar-24 14:30N 29°44' W 095°13'0 0.0
2017-Mar-24 13:33N 29°44' W 095°13'0 0.0
2017-Mar-24 12:33N 29°44' W 095°13'0 0.0
2017-Mar-24 11:33N 29°44' W 095°13'0 0.0
2017-Mar-24 10:33N 29°44' W 095°13'0 0.0
2017-Mar-24 09:30N 29°44' W 095°13'0 0.0
2017-Mar-24 08:33N 29°44' W 095°13'0 0.0
2017-Mar-24 07:33N 29°44' W 095°13'0 0.0
2017-Mar-24 06:33N 29°44' W 095°13'0 0.0
2017-Mar-24 05:33N 29°44' W 095°13'0 0.0
2017-Mar-24 04:33N 29°44' W 095°13'0 0.0
2017-Mar-24 03:33N 29°44' W 095°13'0 0.0
2017-Mar-24 02:30N 29°44' W 095°13'0 0.0
2017-Mar-24 01:33N 29°44' W 095°13'0 0.0
2017-Mar-24 00:33N 29°44' W 095°13'0 0.0
2017-Mar-23 23:33N 29°44' W 095°13'0 0.0
2017-Mar-23 22:33N 29°44' W 095°13'0 0.0
2017-Mar-23 21:33N 29°44' W 095°13'0 0.0
2017-Mar-23 20:33N 29°44' W 095°13'0 0.0
2017-Mar-23 19:33N 29°44' W 095°13'0 0.0
2017-Mar-23 18:33N 29°44' W 095°13'0 0.0
2017-Mar-23 17:33N 29°44' W 095°13'0 0.0
2017-Mar-23 16:33N 29°44' W 095°13'0 0.0
2017-Mar-23 15:33N 29°44' W 095°13'0 0.0
2017-Mar-23 14:33N 29°44' W 095°13'0 0.0
2017-Mar-23 13:33N 29°44' W 095°13'0 0.0
2017-Mar-23 12:33N 29°44' W 095°13'0 0.0
2017-Mar-23 11:33N 29°44' W 095°13'0 0.0
2017-Mar-23 10:33N 29°44' W 095°13'1 1.2
2017-Mar-23 09:33N 29°43' W 095°14'1 0.6
2017-Mar-23 08:32N 29°43' W 095°15'0 0.0
2017-Mar-23 07:32N 29°43' W 095°15'0 0.0
2017-Mar-23 06:32N 29°43' W 095°15'0 0.0
2017-Mar-23 05:32N 29°43' W 095°15'0 0.0
2017-Mar-23 04:32N 29°43' W 095°15'0 0.0
2017-Mar-23 03:32N 29°43' W 095°15'0 0.0
2017-Mar-23 02:32N 29°43' W 095°15'0 0.0
2017-Mar-23 01:29N 29°43' W 095°15'0 0.0
2017-Mar-23 00:32N 29°43' W 095°15'0 0.0
2017-Mar-22 23:32N 29°43' W 095°15'0 0.0
2017-Mar-22 22:32N 29°43' W 095°15'0 0.0
2017-Mar-22 21:32N 29°43' W 095°15'0 0.0
2017-Mar-22 20:32N 29°43' W 095°15'0 0.0
2017-Mar-22 19:32N 29°43' W 095°15'0 0.0
2017-Mar-22 18:32N 29°43' W 095°15'0 0.0
2017-Mar-22 17:26N 29°43' W 095°15'0 0.0
2017-Mar-22 16:32N 29°43' W 095°15'0 0.0
2017-Mar-22 15:32N 29°43' W 095°15'0 0.0
2017-Mar-22 14:32N 29°43' W 095°15'0 0.0
2017-Mar-22 13:32N 29°43' W 095°15'0 0.0
2017-Mar-22 12:32N 29°43' W 095°15'0 0.0
2017-Mar-22 11:32N 29°43' W 095°15'0 0.0
2017-Mar-22 10:29N 29°43' W 095°15'0 0.0
2017-Mar-22 09:32N 29°43' W 095°15'0 0.0
2017-Mar-22 08:32N 29°43' W 095°15'0 0.0
2017-Mar-22 07:32N 29°43' W 095°15'0 0.0
2017-Mar-22 06:32N 29°43' W 095°15'0 0.0
2017-Mar-22 05:32N 29°43' W 095°15'0 0.0
2017-Mar-22 04:29N 29°43' W 095°15'0 0.0
2017-Mar-22 03:32N 29°43' W 095°15'0 0.0
2017-Mar-22 02:32N 29°43' W 095°15'0 0.0
2017-Mar-22 01:32N 29°43' W 095°15'0 0.0
2017-Mar-22 00:32N 29°43' W 095°15'0 0.0
2017-Mar-21 23:32N 29°43' W 095°15'0 0.0
2017-Mar-21 22:32N 29°43' W 095°15'0 0.0
2017-Mar-21 21:32N 29°43' W 095°15'0 0.0
2017-Mar-21 20:32N 29°43' W 095°15'0 0.0
2017-Mar-21 19:32N 29°43' W 095°15'0 0.0
2017-Mar-21 18:29N 29°43' W 095°15'0 0.0
2017-Mar-21 17:32N 29°43' W 095°15'0 0.0
2017-Mar-21 16:29N 29°43' W 095°15'0 0.0
2017-Mar-21 15:32N 29°43' W 095°15'0 0.0
2017-Mar-21 14:32N 29°43' W 095°15'0 0.0
2017-Mar-21 13:29N 29°43' W 095°15'0 0.0
2017-Mar-21 12:32N 29°43' W 095°15'0 0.0
2017-Mar-21 11:32N 29°43' W 095°15'0 0.0
2017-Mar-21 10:32N 29°43' W 095°15'0 0.0
2017-Mar-21 09:32N 29°43' W 095°15'0 0.0
2017-Mar-21 08:32N 29°43' W 095°15'0 0.0
2017-Mar-21 07:32N 29°43' W 095°15'0 0.0
2017-Mar-21 06:32N 29°43' W 095°15'1 0.8
2017-Mar-21 05:33N 29°43' W 095°14'4 4.1
2017-Mar-21 04:31N 29°44' W 095°09'5 5.0
2017-Mar-21 03:31N 29°44' W 095°04'7 7.5
2017-Mar-21 02:33N 29°39' W 094°58'1010.4
2017-Mar-21 01:33N 29°30' W 094°52'  
Track history (hours):
 
Tides and Currents Weather Stations Pressure Air Temp Water Temp Dewpoint Dewpoint Depression Visibility Wind Speed Wind Dir Waves Ship Positions

Atlantic Elm

Last reported at 2017-Mar-26 12:26 UTC. Time now 2017-Mar-29 15:20 UTC.
Position N 29°05' W 094°28'.

Length 190 m; draft 6.7 m.

Type: Ship (hazmat cat A). MMSI: 229081000.

Date/timePositionNaut miles runAvg speedWind from/ knotsBaromVisibWave heightAir tempDewpointWater temp
2017-Mar-26 12:26N 29°05' W 094°28'24 7.9
2017-Mar-26 09:28N 29°21' W 094°47'1111.9
2017-Mar-26 08:33N 29°31' W 094°53'1211.6
2017-Mar-26 07:33N 29°41' W 094°59'7 7.3
2017-Mar-26 06:33N 29°45' W 095°06'5 5.5
2017-Mar-26 05:33N 29°44' W 095°12'1 1.3
2017-Mar-26 04:33N 29°44' W 095°13'0 0.0
2017-Mar-26 03:33N 29°44' W 095°13'0 0.0
2017-Mar-26 02:33N 29°44' W 095°13'0 0.0
2017-Mar-26 01:33N 29°44' W 095°13'0 0.0
2017-Mar-26 00:31N 29°44' W 095°13'0 0.0
2017-Mar-25 23:33N 29°44' W 095°13'0 0.0
2017-Mar-25 22:33N 29°44' W 095°13'0 0.0
2017-Mar-25 21:30N 29°44' W 095°13'0 0.0
2017-Mar-25 20:33N 29°44' W 095°13'0 0.0
2017-Mar-25 19:33N 29°44' W 095°13'0 0.0
2017-Mar-25 18:30N 29°44' W 095°13'0 0.0
2017-Mar-25 17:30N 29°44' W 095°13'0 0.0
2017-Mar-25 16:33N 29°44' W 095°13'0 0.0
2017-Mar-25 15:33N 29°44' W 095°13'0 0.0
2017-Mar-25 14:30N 29°44' W 095°13'0 0.0
2017-Mar-25 13:33N 29°44' W 095°13'0 0.0
2017-Mar-25 12:33N 29°44' W 095°13'0 0.0
2017-Mar-25 11:33N 29°44' W 095°13'0 0.0
2017-Mar-25 10:33N 29°44' W 095°13'0 0.0
2017-Mar-25 09:33N 29°44' W 095°13'0 0.0
2017-Mar-25 08:33N 29°44' W 095°13'0 0.0
2017-Mar-25 07:33N 29°44' W 095°13'0 0.0
2017-Mar-25 06:33N 29°44' W 095°13'0 0.0
2017-Mar-25 05:33N 29°44' W 095°13'0 0.0
2017-Mar-25 04:33N 29°44' W 095°13'0 0.0
2017-Mar-25 03:33N 29°44' W 095°13'0 0.0
2017-Mar-25 02:33N 29°44' W 095°13'0 0.0
2017-Mar-25 01:33N 29°44' W 095°13'0 0.0
2017-Mar-25 00:33N 29°44' W 095°13'0 0.0
2017-Mar-24 23:33N 29°44' W 095°13'0 0.0
2017-Mar-24 22:33N 29°44' W 095°13'0 0.0
2017-Mar-24 21:33N 29°44' W 095°13'0 0.0
2017-Mar-24 20:33N 29°44' W 095°13'0 0.0
2017-Mar-24 19:33N 29°44' W 095°13'0 0.0
2017-Mar-24 18:33N 29°44' W 095°13'0 0.0
2017-Mar-24 17:33N 29°44' W 095°13'0 0.0
2017-Mar-24 16:33N 29°44' W 095°13'0 0.0
2017-Mar-24 15:33N 29°44' W 095°13'0 0.0
2017-Mar-24 14:30N 29°44' W 095°13'0 0.0
2017-Mar-24 13:33N 29°44' W 095°13'0 0.0
2017-Mar-24 12:33N 29°44' W 095°13'0 0.0
2017-Mar-24 11:33N 29°44' W 095°13'0 0.0
2017-Mar-24 10:33N 29°44' W 095°13'0 0.0
2017-Mar-24 09:30N 29°44' W 095°13'0 0.0
2017-Mar-24 08:33N 29°44' W 095°13'0 0.0
2017-Mar-24 07:33N 29°44' W 095°13'0 0.0
2017-Mar-24 06:33N 29°44' W 095°13'0 0.0
2017-Mar-24 05:33N 29°44' W 095°13'0 0.0
2017-Mar-24 04:33N 29°44' W 095°13'0 0.0
2017-Mar-24 03:33N 29°44' W 095°13'0 0.0
2017-Mar-24 02:30N 29°44' W 095°13'0 0.0
2017-Mar-24 01:33N 29°44' W 095°13'0 0.0
2017-Mar-24 00:33N 29°44' W 095°13'0 0.0
2017-Mar-23 23:33N 29°44' W 095°13'0 0.0
2017-Mar-23 22:33N 29°44' W 095°13'0 0.0
2017-Mar-23 21:33N 29°44' W 095°13'0 0.0
2017-Mar-23 20:33N 29°44' W 095°13'0 0.0
2017-Mar-23 19:33N 29°44' W 095°13'0 0.0
2017-Mar-23 18:33N 29°44' W 095°13'0 0.0
2017-Mar-23 17:33N 29°44' W 095°13'0 0.0
2017-Mar-23 16:33N 29°44' W 095°13'0 0.0
2017-Mar-23 15:33N 29°44' W 095°13'0 0.0
2017-Mar-23 14:33N 29°44' W 095°13'0 0.0
2017-Mar-23 13:33N 29°44' W 095°13'0 0.0
2017-Mar-23 12:33N 29°44' W 095°13'0 0.0
2017-Mar-23 11:33N 29°44' W 095°13'0 0.0
2017-Mar-23 10:33N 29°44' W 095°13'1 1.2
2017-Mar-23 09:33N 29°43' W 095°14'1 0.6
2017-Mar-23 08:32N 29°43' W 095°15'0 0.0
2017-Mar-23 07:32N 29°43' W 095°15'0 0.0
2017-Mar-23 06:32N 29°43' W 095°15'0 0.0
2017-Mar-23 05:32N 29°43' W 095°15'0 0.0
2017-Mar-23 04:32N 29°43' W 095°15'0 0.0
2017-Mar-23 03:32N 29°43' W 095°15'0 0.0
2017-Mar-23 02:32N 29°43' W 095°15'0 0.0
2017-Mar-23 01:29N 29°43' W 095°15'0 0.0
2017-Mar-23 00:32N 29°43' W 095°15'0 0.0
2017-Mar-22 23:32N 29°43' W 095°15'0 0.0
2017-Mar-22 22:32N 29°43' W 095°15'0 0.0
2017-Mar-22 21:32N 29°43' W 095°15'0 0.0
2017-Mar-22 20:32N 29°43' W 095°15'0 0.0
2017-Mar-22 19:32N 29°43' W 095°15'0 0.0
2017-Mar-22 18:32N 29°43' W 095°15'0 0.0
2017-Mar-22 17:26N 29°43' W 095°15'0 0.0
2017-Mar-22 16:32N 29°43' W 095°15'0 0.0
2017-Mar-22 15:32N 29°43' W 095°15'0 0.0
2017-Mar-22 14:32N 29°43' W 095°15'0 0.0
2017-Mar-22 13:32N 29°43' W 095°15'0 0.0
2017-Mar-22 12:32N 29°43' W 095°15'0 0.0
2017-Mar-22 11:32N 29°43' W 095°15'0 0.0
2017-Mar-22 10:29N 29°43' W 095°15'0 0.0
2017-Mar-22 09:32N 29°43' W 095°15'0 0.0
2017-Mar-22 08:32N 29°43' W 095°15'0 0.0
2017-Mar-22 07:32N 29°43' W 095°15'0 0.0
2017-Mar-22 06:32N 29°43' W 095°15'0 0.0
2017-Mar-22 05:32N 29°43' W 095°15'0 0.0
2017-Mar-22 04:29N 29°43' W 095°15'0 0.0
2017-Mar-22 03:32N 29°43' W 095°15'0 0.0
2017-Mar-22 02:32N 29°43' W 095°15'0 0.0
2017-Mar-22 01:32N 29°43' W 095°15'0 0.0
2017-Mar-22 00:32N 29°43' W 095°15'0 0.0
2017-Mar-21 23:32N 29°43' W 095°15'0 0.0
2017-Mar-21 22:32N 29°43' W 095°15'0 0.0
2017-Mar-21 21:32N 29°43' W 095°15'0 0.0
2017-Mar-21 20:32N 29°43' W 095°15'0 0.0
2017-Mar-21 19:32N 29°43' W 095°15'0 0.0
2017-Mar-21 18:29N 29°43' W 095°15'0 0.0
2017-Mar-21 17:32N 29°43' W 095°15'0 0.0
2017-Mar-21 16:29N 29°43' W 095°15'0 0.0
2017-Mar-21 15:32N 29°43' W 095°15'0 0.0
2017-Mar-21 14:32N 29°43' W 095°15'0 0.0
2017-Mar-21 13:29N 29°43' W 095°15'0 0.0
2017-Mar-21 12:32N 29°43' W 095°15'0 0.0
2017-Mar-21 11:32N 29°43' W 095°15'0 0.0
2017-Mar-21 10:32N 29°43' W 095°15'0 0.0
2017-Mar-21 09:32N 29°43' W 095°15'0 0.0
2017-Mar-21 08:32N 29°43' W 095°15'0 0.0
2017-Mar-21 07:32N 29°43' W 095°15'0 0.0
2017-Mar-21 06:32N 29°43' W 095°15'1 0.8
2017-Mar-21 05:33N 29°43' W 095°14'4 4.1
2017-Mar-21 04:31N 29°44' W 095°09'5 5.0
2017-Mar-21 03:31N 29°44' W 095°04'7 7.5
2017-Mar-21 02:33N 29°39' W 094°58'1010.4
2017-Mar-21 01:33N 29°30' W 094°52'  

Dump ship's entire track history